Time;durP1;ratioP1;P1;durP2;ratioP2;P2;SDS_P1;SDS_P2;PMS_P1;PMS_P2;Temp;Humidity;BMP_temperature;BMP_pressure;BME280_temperature;BME280_humidity;BME280_pressure;Samples;Min_cycle;Max_cycle;Signal;HPM_P1;HPM_P2
2022/01/12 00:01:15;;;;;;;11.23;8.68;;;;;;;;;;10316606;28;20045;-54
2022/01/12 00:06:13;;;;;;;11.88;7.22;;;;;;;;;;10316036;28;20076;-51
2022/01/12 00:11:12;;;;;;;11.23;8.27;;;;;;;;;;10316233;28;20052;-54
2022/01/12 00:16:12;;;;;;;10.80;8.35;;;;;;;;;;10315881;28;20068;-54
2022/01/12 00:21:10;;;;;;;9.85;8.18;;;;;;;;;;10320045;28;20048;-55
2022/01/12 00:26:11;;;;;;;9.98;7.82;;;;;;;;;;10323886;28;20051;-54
2022/01/12 00:36:27;;;;;;;11.57;9.32;;;;;;;;;;10321712;28;20048;-56
2022/01/12 00:41:26;;;;;;;10.05;8.05;;;;;;;;;;10321765;28;20056;-53
2022/01/12 00:46:25;;;;;;;11.45;7.88;;;;;;;;;;10321941;28;20051;-50
2022/01/12 00:51:26;;;;;;;11.80;8.88;;;;;;;;;;10319576;28;20433;-55
2022/01/12 00:56:26;;;;;;;12.68;8.48;;;;;;;;;;10320795;28;20083;-55
2022/01/12 01:01:24;;;;;;;10.68;8.32;;;;;;;;;;10340153;28;20550;-55
2022/01/12 01:06:23;;;;;;;11.65;8.18;;;;;;;;;;10360561;28;20509;-55
2022/01/12 01:11:23;;;;;;;11.77;8.32;;;;;;;;;;10361848;28;20058;-55
2022/01/12 01:16:31;;;;;;;9.43;7.38;;;;;;;;;;10341633;28;20044;-56
2022/01/12 01:26:45;;;;;;;11.25;7.85;;;;;;;;;;10359850;28;20078;-54
2022/01/12 01:31:46;;;;;;;12.23;8.68;;;;;;;;;;10358495;28;20051;-51
2022/01/12 01:36:46;;;;;;;11.57;7.72;;;;;;;;;;10340602;28;20048;-54
2022/01/12 01:41:49;;;;;;;12.32;9.02;;;;;;;;;;10340366;28;20056;-54
2022/01/12 01:57:35;;;;;;;9.20;6.78;;;;;;;;;;10390976;28;20051;-54
2022/01/12 02:02:33;;;;;;;10.13;7.15;;;;;;;;;;10391210;28;20055;-54
2022/01/12 02:07:34;;;;;;;10.88;7.97;;;;;;;;;;10391008;28;20050;-52
2022/01/12 02:12:35;;;;;;;11.63;8.75;;;;;;;;;;10390476;28;20043;-52
2022/01/12 02:17:37;;;;;;;9.23;6.40;;;;;;;;;;10390811;28;20040;-54
2022/01/12 02:54:15;;;;;;;;;;;;;;;;;;10390309;28;20051;-55
2022/01/12 02:59:15;;;;;;;5.97;5.32;;;;;;;;;;10386601;28;19927;-53
2022/01/12 03:04:13;;;;;;;7.63;5.47;;;;;;;;;;10361813;28;20048;-55
2022/01/12 03:09:12;;;;;;;10.80;5.72;;;;;;;;;;10362306;28;20082;-52
2022/01/12 03:14:11;;;;;;;9.25;6.05;;;;;;;;;;10360928;28;20059;-55
2022/01/12 03:19:11;;;;;;;7.72;5.30;;;;;;;;;;10362033;28;20047;-52
2022/01/12 03:24:09;;;;;;;8.43;5.53;;;;;;;;;;10360171;28;20040;-54
2022/01/12 03:29:08;;;;;;;7.45;5.63;;;;;;;;;;10322715;28;20080;-54
2022/01/12 03:34:09;;;;;;;11.80;7.03;;;;;;;;;;10319498;28;20059;-54
2022/01/12 03:39:10;;;;;;;10.00;6.18;;;;;;;;;;10318722;28;20056;-54
2022/01/12 03:44:11;;;;;;;7.03;5.53;;;;;;;;;;10318774;28;20052;-55
2022/01/12 03:49:09;;;;;;;20.27;8.20;;;;;;;;;;10317616;28;20091;-53
2022/01/12 03:54:09;;;;;;;11.90;7.28;;;;;;;;;;10317878;28;20048;-55
2022/01/12 03:59:08;;;;;;;10.95;5.88;;;;;;;;;;10319555;28;20052;-53
2022/01/12 04:04:10;;;;;;;8.93;6.65;;;;;;;;;;10318191;28;20040;-55
2022/01/12 04:09:10;;;;;;;9.07;5.93;;;;;;;;;;10318986;28;20079;-55
2022/01/12 04:14:08;;;;;;;17.10;10.35;;;;;;;;;;10318059;28;20497;-54
2022/01/12 04:19:07;;;;;;;10.98;8.45;;;;;;;;;;10317542;28;20055;-53
2022/01/12 04:24:06;;;;;;;11.15;7.18;;;;;;;;;;10317746;28;20048;-55
2022/01/12 04:29:06;;;;;;;10.85;7.53;;;;;;;;;;10317871;28;20467;-53
2022/01/12 04:34:05;;;;;;;12.80;8.98;;;;;;;;;;10316673;28;20481;-50
2022/01/12 04:39:03;;;;;;;13.95;10.93;;;;;;;;;;10318239;28;20044;-52
2022/01/12 04:44:02;;;;;;;13.23;6.95;;;;;;;;;;10316924;28;20154;-55
2022/01/12 04:49:36;;;;;;;12.27;8.48;;;;;;;;;;10316404;28;20178;-55
2022/01/12 04:54:35;;;;;;;16.25;8.57;;;;;;;;;;10334932;28;20044;-56
2022/01/12 04:59:38;;;;;;;20.05;13.55;;;;;;;;;;10318234;28;20056;-55
2022/01/12 05:15:20;;;;;;;21.75;12.57;;;;;;;;;;10314509;28;20119;-55
2022/01/12 05:20:20;;;;;;;24.42;16.20;;;;;;;;;;10353874;28;20059;-53
2022/01/12 05:25:18;;;;;;;16.05;11.32;;;;;;;;;;10353930;28;20059;-55
2022/01/12 05:30:17;;;;;;;12.10;8.82;;;;;;;;;;10354470;28;20048;-52
2022/01/12 05:35:18;;;;;;;16.70;9.70;;;;;;;;;;10352418;28;20406;-52
2022/01/12 05:40:20;;;;;;;14.68;9.68;;;;;;;;;;10314788;28;20056;-51
2022/01/12 05:45:20;;;;;;;14.48;10.20;;;;;;;;;;10313994;28;20045;-54
2022/01/12 05:50:19;;;;;;;11.45;9.18;;;;;;;;;;10312812;28;20060;-55
2022/01/12 05:55:19;;;;;;;15.35;11.40;;;;;;;;;;10310995;28;20051;-56
2022/01/12 06:00:19;;;;;;;19.50;12.13;;;;;;;;;;10341801;28;20070;-56
2022/01/12 06:05:24;;;;;;;15.25;9.93;;;;;;;;;;10336363;28;20072;-54
2022/01/12 06:10:25;;;;;;;22.17;11.20;;;;;;;;;;10332370;28;20575;-54
2022/01/12 06:15:25;;;;;;;19.58;10.95;;;;;;;;;;10349210;28;20056;-56
2022/01/12 06:20:24;;;;;;;15.65;11.20;;;;;;;;;;10350346;28;20052;-57
2022/01/12 06:25:55;;;;;;;20.02;12.93;;;;;;;;;;10361608;28;20162;-54
2022/01/12 06:31:11;;;;;;;20.73;11.20;;;;;;;;;;10353492;28;20449;-55
2022/01/12 06:36:11;;;;;;;15.27;9.23;;;;;;;;;;10357113;28;20051;-56
2022/01/12 06:41:12;;;;;;;17.60;9.20;;;;;;;;;;10361875;28;20082;-53
2022/01/12 06:46:10;;;;;;;13.02;8.68;;;;;;;;;;10361681;28;20051;-55
2022/01/12 06:51:09;;;;;;;21.27;15.68;;;;;;;;;;10360908;28;20421;-53
2022/01/12 06:56:08;;;;;;;20.90;13.63;;;;;;;;;;10360528;28;20062;-55
2022/01/12 07:01:13;;;;;;;19.65;13.32;;;;;;;;;;10360396;28;20417;-54
2022/01/12 07:06:15;;;;;;;17.60;11.52;;;;;;;;;;10358999;28;20056;-56
2022/01/12 07:11:14;;;;;;;15.73;11.40;;;;;;;;;;10359388;28;20091;-53
2022/01/12 07:16:14;;;;;;;15.45;11.52;;;;;;;;;;10357285;28;20047;-56
2022/01/12 07:21:14;;;;;;;20.42;12.52;;;;;;;;;;10359210;28;20071;-53
2022/01/12 07:26:12;;;;;;;20.27;13.57;;;;;;;;;;10361184;28;20401;-55
2022/01/12 07:31:10;;;;;;;17.65;10.38;;;;;;;;;;10360285;28;20504;-54
2022/01/12 07:36:10;;;;;;;15.10;10.00;;;;;;;;;;10362183;28;20044;-55
2022/01/12 07:41:08;;;;;;;14.85;11.07;;;;;;;;;;10361796;28;20071;-53
2022/01/12 07:46:06;;;;;;;23.25;12.43;;;;;;;;;;10359116;28;20079;-54
2022/01/12 07:51:05;;;;;;;15.60;11.40;;;;;;;;;;10359585;28;20495;-52
2022/01/12 07:56:05;;;;;;;14.07;9.70;;;;;;;;;;10360406;28;20490;-55
2022/01/12 08:01:04;;;;;;;12.73;8.85;;;;;;;;;;10360203;28;20099;-54
2022/01/12 08:06:03;;;;;;;21.45;11.18;;;;;;;;;;10359918;28;20362;-54
2022/01/12 08:11:01;;;;;;;21.33;12.48;;;;;;;;;;10359268;28;20079;-56
2022/01/12 08:16:01;;;;;;;15.32;10.35;;;;;;;;;;10358724;28;20051;-57
2022/01/12 08:21:00;;;;;;;27.83;16.65;;;;;;;;;;10357286;28;20052;-55
2022/01/12 08:25:58;;;;;;;20.85;13.38;;;;;;;;;;10358051;28;20036;-57
2022/01/12 08:30:57;;;;;;;22.48;14.18;;;;;;;;;;10356525;28;20083;-56
2022/01/12 08:35:56;;;;;;;25.33;16.65;;;;;;;;;;10355534;28;20365;-55
2022/01/12 08:40:55;;;;;;;25.77;14.40;;;;;;;;;;10355050;28;20391;-54
2022/01/12 08:45:54;;;;;;;15.57;10.98;;;;;;;;;;10355609;28;20048;-55
2022/01/12 08:50:52;;;;;;;16.98;11.48;;;;;;;;;;10353786;28;20094;-55
2022/01/12 08:55:52;;;;;;;19.58;12.73;;;;;;;;;;10355057;28;20085;-56
2022/01/12 09:00:50;;;;;;;25.98;14.18;;;;;;;;;;10352727;28;20079;-55
2022/01/12 09:05:49;;;;;;;24.23;13.35;;;;;;;;;;10354829;28;20478;-51
2022/01/12 09:10:47;;;;;;;14.57;10.88;;;;;;;;;;10355056;28;20072;-55
2022/01/12 09:15:47;;;;;;;12.45;9.85;;;;;;;;;;10355504;28;20393;-56
2022/01/12 09:20:45;;;;;;;16.42;10.60;;;;;;;;;;10352136;28;20424;-54
2022/01/12 09:25:44;;;;;;;14.48;9.73;;;;;;;;;;10353113;28;20067;-56
2022/01/12 09:30:42;;;;;;;21.13;12.77;;;;;;;;;;10351654;28;20048;-55
2022/01/12 09:35:43;;;;;;;26.58;18.20;;;;;;;;;;10353414;28;20055;-56
2022/01/12 09:40:42;;;;;;;23.42;18.02;;;;;;;;;;10352008;28;20048;-55
2022/01/12 09:45:49;;;;;;;22.23;14.63;;;;;;;;;;10350839;28;20062;-53
2022/01/12 09:50:49;;;;;;;15.50;12.38;;;;;;;;;;10350481;28;20091;-54
2022/01/12 09:55:48;;;;;;;13.70;9.60;;;;;;;;;;10350170;28;20490;-55
2022/01/12 10:00:56;;;;;;;24.15;15.05;;;;;;;;;;10349888;28;20055;-55
2022/01/12 10:06:11;;;;;;;24.48;13.57;;;;;;;;;;10352762;28;20080;-54
2022/01/12 10:11:11;;;;;;;19.60;12.65;;;;;;;;;;10356583;28;20141;-56
2022/01/12 10:16:14;;;;;;;24.10;15.27;;;;;;;;;;10359218;28;20044;-54
2022/01/12 10:21:25;;;;;;;14.43;10.93;;;;;;;;;;10359712;28;20087;-55
2022/01/12 10:26:28;;;;;;;17.73;10.65;;;;;;;;;;10358739;28;20055;-56
2022/01/12 10:31:26;;;;;;;21.27;13.27;;;;;;;;;;10356019;28;20048;-56
2022/01/12 10:36:36;;;;;;;42.25;25.65;;;;;;;;;;10356941;28;20417;-55
2022/01/12 10:41:34;;;;;;;20.23;13.43;;;;;;;;;;10357949;28;20055;-55
2022/01/12 10:46:32;;;;;;;22.70;14.93;;;;;;;;;;10359615;28;20044;-54
2022/01/12 10:51:32;;;;;;;16.42;12.88;;;;;;;;;;10359974;28;20106;-53
2022/01/12 10:56:30;;;;;;;22.15;13.48;;;;;;;;;;10361366;28;20507;-53
2022/01/12 11:01:30;;;;;;;18.35;11.10;;;;;;;;;;10359644;28;20163;-53
2022/01/12 11:06:29;;;;;;;21.05;12.32;;;;;;;;;;10360733;28;20507;-55
2022/01/12 11:11:29;;;;;;;18.33;12.38;;;;;;;;;;10360166;28;20090;-55
2022/01/12 11:16:28;;;;;;;16.55;10.52;;;;;;;;;;10357103;28;20052;-55
2022/01/12 11:21:31;;;;;;;18.17;12.95;;;;;;;;;;10358977;28;20059;-55
2022/01/12 11:26:32;;;;;;;26.20;15.32;;;;;;;;;;10360343;28;20086;-55
2022/01/12 11:31:31;;;;;;;27.70;17.02;;;;;;;;;;10357837;28;20087;-55
2022/01/12 11:36:35;;;;;;;22.85;15.27;;;;;;;;;;10358680;28;20072;-56
2022/01/12 11:41:36;;;;;;;20.48;14.38;;;;;;;;;;10359947;28;20050;-55
2022/01/12 11:46:44;;;;;;;30.35;18.35;;;;;;;;;;10358113;28;20059;-55
2022/01/12 11:51:44;;;;;;;24.00;14.38;;;;;;;;;;10353933;28;20095;-56
2022/01/12 11:56:53;;;;;;;36.38;21.77;;;;;;;;;;10357841;28;20047;-55
2022/01/12 12:01:52;;;;;;;94.63;43.78;;;;;;;;;;10356252;28;20068;-56
2022/01/12 12:07:01;;;;;;;29.00;18.48;;;;;;;;;;10355214;28;20044;-54
2022/01/12 12:12:01;;;;;;;24.42;16.00;;;;;;;;;;10355922;28;20075;-54
2022/01/12 12:16:59;;;;;;;20.00;13.23;;;;;;;;;;10358690;28;20078;-54
2022/01/12 12:21:57;;;;;;;31.50;18.48;;;;;;;;;;10360598;28;20486;-54
2022/01/12 12:26:56;;;;;;;28.30;18.58;;;;;;;;;;10360902;28;20528;-55
2022/01/12 12:31:57;;;;;;;29.75;18.77;;;;;;;;;;10360011;28;20472;-53
2022/01/12 12:36:56;;;;;;;30.67;19.17;;;;;;;;;;10360292;28;20443;-54
2022/01/12 12:41:55;;;;;;;26.50;16.30;;;;;;;;;;10360167;28;20067;-56
2022/01/12 12:47:04;;;;;;;31.02;18.63;;;;;;;;;;10360060;28;20066;-56
2022/01/12 12:52:05;;;;;;;26.48;16.70;;;;;;;;;;10358723;28;20158;-58
2022/01/12 12:57:08;;;;;;;25.15;17.20;;;;;;;;;;10359950;28;20084;-55
2022/01/12 13:02:10;;;;;;;30.15;20.40;;;;;;;;;;10359473;28;20450;-56
2022/01/12 13:07:14;;;;;;;33.55;19.33;;;;;;;;;;10359308;28;20054;-55
2022/01/12 13:12:13;;;;;;;39.65;22.58;;;;;;;;;;10358351;28;20087;-56
2022/01/12 13:17:11;;;;;;;35.90;20.17;;;;;;;;;;10358719;28;20110;-56
2022/01/12 13:22:09;;;;;;;40.42;25.33;;;;;;;;;;10358883;28;20047;-55
2022/01/12 13:27:09;;;;;;;31.50;18.50;;;;;;;;;;10358474;28;20048;-55
2022/01/12 13:32:11;;;;;;;45.45;24.35;;;;;;;;;;10358354;28;20079;-53
2022/01/12 13:37:13;;;;;;;48.10;27.63;;;;;;;;;;10357085;28;20051;-55
2022/01/12 13:42:13;;;;;;;49.45;26.38;;;;;;;;;;10358198;28;20040;-56
2022/01/12 13:47:22;;;;;;;39.65;25.40;;;;;;;;;;10358036;28;20040;-57
2022/01/12 13:52:20;;;;;;;25.98;17.95;;;;;;;;;;10357360;28;20076;-55
2022/01/12 13:57:26;;;;;;;23.77;15.25;;;;;;;;;;10356913;28;20059;-55
2022/01/12 14:02:27;;;;;;;32.88;20.15;;;;;;;;;;10356261;28;20106;-55
2022/01/12 14:07:25;;;;;;;50.78;29.90;;;;;;;;;;10356200;28;20040;-55
2022/01/12 14:12:27;;;;;;;19.90;13.63;;;;;;;;;;10355585;28;20090;-55
2022/01/12 14:17:26;;;;;;;27.35;18.15;;;;;;;;;;10355663;28;20505;-55
2022/01/12 14:22:25;;;;;;;30.85;19.65;;;;;;;;;;10354432;28;20059;-55
2022/01/12 14:27:25;;;;;;;22.95;14.52;;;;;;;;;;10355301;28;20059;-55
2022/01/12 14:32:23;;;;;;;23.80;13.18;;;;;;;;;;10354113;28;20126;-55
2022/01/12 14:37:22;;;;;;;21.00;14.60;;;;;;;;;;10354713;28;20040;-54
2022/01/12 14:42:20;;;;;;;19.40;12.88;;;;;;;;;;10353972;28;20527;-55
2022/01/12 14:47:20;;;;;;;28.08;15.88;;;;;;;;;;10354676;28;20055;-54
2022/01/12 14:52:18;;;;;;;18.20;14.05;;;;;;;;;;10353001;28;20048;-54
2022/01/12 14:57:16;;;;;;;38.33;21.23;;;;;;;;;;10358216;28;20079;-56
2022/01/12 15:02:14;;;;;;;117.97;55.67;;;;;;;;;;10363496;28;20063;-52
2022/01/12 15:07:16;;;;;;;54.03;36.58;;;;;;;;;;10356022;28;20048;-51
2022/01/12 15:12:19;;;;;;;43.05;24.00;;;;;;;;;;10361649;28;20071;-53
2022/01/12 15:17:18;;;;;;;39.97;23.77;;;;;;;;;;10341299;28;20078;-56
2022/01/12 15:22:17;;;;;;;47.00;28.00;;;;;;;;;;10340681;28;20139;-54
2022/01/12 15:27:16;;;;;;;55.45;38.10;;;;;;;;;;10339338;28;20523;-54
2022/01/12 15:32:15;;;;;;;54.22;30.58;;;;;;;;;;10334771;28;20071;-57
2022/01/12 15:37:13;;;;;;;61.05;35.13;;;;;;;;;;10341463;28;20185;-53
2022/01/12 15:42:13;;;;;;;33.30;20.75;;;;;;;;;;10337989;28;20075;-55
2022/01/12 15:47:12;;;;;;;27.63;17.08;;;;;;;;;;10344055;28;20184;-55
2022/01/12 15:52:10;;;;;;;45.47;29.05;;;;;;;;;;10359779;28;20095;-55
2022/01/12 15:57:10;;;;;;;41.50;26.17;;;;;;;;;;10341698;28;20068;-55
2022/01/12 16:02:10;;;;;;;77.53;41.80;;;;;;;;;;10335698;28;20504;-54
2022/01/12 16:07:09;;;;;;;99.60;53.78;;;;;;;;;;10360262;28;20079;-53
2022/01/12 16:12:08;;;;;;;109.22;67.68;;;;;;;;;;10343584;28;20433;-53
2022/01/12 16:17:27;;;;;;;57.92;36.80;;;;;;;;;;10341359;28;20108;-56
2022/01/12 16:22:25;;;;;;;70.43;42.22;;;;;;;;;;10337770;28;20060;-53
2022/01/12 16:27:24;;;;;;;80.88;45.08;;;;;;;;;;10314205;28;20476;-54
2022/01/12 16:32:22;;;;;;;70.47;40.60;;;;;;;;;;10317210;28;20052;-53
2022/01/12 16:37:22;;;;;;;72.70;38.25;;;;;;;;;;10317755;28;20083;-53
2022/01/12 16:42:20;;;;;;;76.80;39.47;;;;;;;;;;10314024;28;20075;-54
2022/01/12 16:47:19;;;;;;;72.75;36.70;;;;;;;;;;10313324;28;20083;-56
2022/01/12 16:52:17;;;;;;;54.25;31.27;;;;;;;;;;10312674;28;20403;-55
2022/01/12 16:57:18;;;;;;;47.75;29.02;;;;;;;;;;10315756;28;20068;-53
2022/01/12 17:02:16;;;;;;;84.43;48.58;;;;;;;;;;10316074;28;20048;-50
2022/01/12 17:07:15;;;;;;;62.17;36.28;;;;;;;;;;10317167;28;20041;-53
2022/01/12 17:12:13;;;;;;;68.95;39.50;;;;;;;;;;10317132;28;20044;-53
2022/01/12 17:17:53;;;;;;;66.65;41.50;;;;;;;;;;10315008;28;20084;-56
2022/01/12 17:22:53;;;;;;;54.30;33.70;;;;;;;;;;10314372;28;20036;-53
2022/01/12 17:28:10;;;;;;;60.70;37.05;;;;;;;;;;10311010;28;20076;-52
2022/01/12 17:33:08;;;;;;;146.82;60.92;;;;;;;;;;10314511;28;20060;-55
2022/01/12 17:38:08;;;;;;;200.57;77.65;;;;;;;;;;10313223;28;20068;-57
2022/01/12 17:43:07;;;;;;;125.72;59.50;;;;;;;;;;10312147;28;20075;-55
2022/01/12 17:48:08;;;;;;;220.50;103.57;;;;;;;;;;10310777;28;20072;-56
2022/01/12 17:53:08;;;;;;;130.82;68.82;;;;;;;;;;10313026;28;20047;-55
2022/01/12 17:58:06;;;;;;;83.13;47.38;;;;;;;;;;10314953;28;20128;-55
2022/01/12 18:03:04;;;;;;;50.70;31.15;;;;;;;;;;10315415;28;20075;-57
2022/01/12 18:08:03;;;;;;;58.38;33.08;;;;;;;;;;10314748;28;20170;-55
2022/01/12 18:13:03;;;;;;;58.65;35.53;;;;;;;;;;10315140;28;20498;-55
2022/01/12 18:18:07;;;;;;;51.70;32.00;;;;;;;;;;10315095;28;20068;-53
2022/01/12 18:23:05;;;;;;;60.63;37.55;;;;;;;;;;10315731;28;20048;-55
2022/01/12 18:28:05;;;;;;;60.95;36.08;;;;;;;;;;10315405;28;20044;-56
2022/01/12 18:33:03;;;;;;;58.58;33.35;;;;;;;;;;10319764;28;20070;-55
2022/01/12 18:38:03;;;;;;;57.25;35.75;;;;;;;;;;10322746;28;20068;-55
2022/01/12 18:43:01;;;;;;;61.78;36.03;;;;;;;;;;10323126;28;20056;-53
2022/01/12 18:48:01;;;;;;;59.03;36.97;;;;;;;;;;10322431;28;20087;-55
2022/01/12 18:52:59;;;;;;;44.30;27.60;;;;;;;;;;10322924;28;20040;-54
2022/01/12 18:57:57;;;;;;;65.30;31.45;;;;;;;;;;10322591;28;20076;-56
2022/01/12 19:02:56;;;;;;;82.93;46.92;;;;;;;;;;10322123;28;20482;-56
2022/01/12 19:07:56;;;;;;;78.70;48.80;;;;;;;;;;10322200;28;20040;-55
2022/01/12 19:12:55;;;;;;;58.63;37.35;;;;;;;;;;10322069;28;20052;-55
2022/01/12 19:17:53;;;;;;;63.53;35.22;;;;;;;;;;10321459;28;20526;-53
2022/01/12 19:22:52;;;;;;;48.50;32.40;;;;;;;;;;10321758;28;20076;-55
2022/01/12 19:27:51;;;;;;;71.30;35.58;;;;;;;;;;10321668;28;20044;-56
2022/01/12 19:32:50;;;;;;;100.05;50.95;;;;;;;;;;10321201;28;20052;-56
2022/01/12 19:37:48;;;;;;;50.88;30.33;;;;;;;;;;10321178;28;20080;-54
2022/01/12 19:42:46;;;;;;;40.50;25.38;;;;;;;;;;10320048;28;20044;-52
2022/01/12 19:47:46;;;;;;;59.05;31.83;;;;;;;;;;10320050;28;20049;-55
2022/01/12 19:52:46;;;;;;;57.95;32.15;;;;;;;;;;10320655;28;20079;-57
2022/01/12 19:57:47;;;;;;;55.53;32.90;;;;;;;;;;10320155;28;20068;-55
2022/01/12 20:03:04;;;;;;;135.38;73.50;;;;;;;;;;10319889;28;20414;-53
2022/01/12 20:08:24;;;;;;;93.20;57.33;;;;;;;;;;10319683;28;20028;-55
2022/01/12 20:13:22;;;;;;;80.28;40.22;;;;;;;;;;10319323;28;20055;-56
2022/01/12 20:24:04;;;;;;;56.40;31.05;;;;;;;;;;10319256;28;20053;-57
2022/01/12 20:29:03;;;;;;;52.97;30.65;;;;;;;;;;10318790;28;20099;-56
2022/01/12 20:34:03;;;;;;;56.28;29.58;;;;;;;;;;10318019;28;20049;-58
2022/01/12 20:39:01;;;;;;;169.65;89.10;;;;;;;;;;10318486;28;20072;-54
2022/01/12 20:44:00;;;;;;;53.47;32.13;;;;;;;;;;10318357;28;20056;-56
2022/01/12 20:48:58;;;;;;;99.40;61.30;;;;;;;;;;10317377;28;20049;-57
2022/01/12 20:53:58;;;;;;;102.72;66.93;;;;;;;;;;10317600;28;20083;-57
2022/01/12 20:58:56;;;;;;;125.40;79.25;;;;;;;;;;10317856;28;20493;-56
2022/01/12 21:03:54;;;;;;;81.97;48.67;;;;;;;;;;10317794;28;20498;-55
2022/01/12 21:08:53;;;;;;;51.10;34.17;;;;;;;;;;10317547;28;20071;-56
2022/01/12 21:13:53;;;;;;;66.13;42.75;;;;;;;;;;10316519;28;20041;-54
2022/01/12 21:18:51;;;;;;;57.75;35.90;;;;;;;;;;10315648;28;20087;-54
2022/01/12 21:23:50;;;;;;;68.70;41.72;;;;;;;;;;10316993;28;20496;-55
2022/01/12 21:28:48;;;;;;;77.38;44.08;;;;;;;;;;10316638;28;20087;-54
2022/01/12 21:33:47;;;;;;;75.97;57.38;;;;;;;;;;10316852;28;20177;-57
2022/01/12 21:38:54;;;;;;;89.78;60.10;;;;;;;;;;10316333;28;20072;-56
2022/01/12 21:43:53;;;;;;;79.63;50.03;;;;;;;;;;10316064;28;20043;-54
2022/01/12 21:48:56;;;;;;;235.10;131.52;;;;;;;;;;10315814;28;20049;-55
2022/01/12 21:53:54;;;;;;;108.78;60.47;;;;;;;;;;10316322;28;20056;-53
2022/01/12 21:58:55;;;;;;;88.10;49.65;;;;;;;;;;10316032;28;20071;-51
2022/01/12 22:03:55;;;;;;;101.90;57.08;;;;;;;;;;10316446;28;20041;-55
2022/01/12 22:08:53;;;;;;;114.60;66.88;;;;;;;;;;10323833;28;20241;-56
2022/01/12 22:13:51;;;;;;;104.15;63.67;;;;;;;;;;10323780;28;20508;-53
2022/01/12 22:18:49;;;;;;;146.68;84.45;;;;;;;;;;10323601;28;20068;-52
2022/01/12 22:23:49;;;;;;;52.90;31.13;;;;;;;;;;10324216;28;20044;-51
2022/01/12 22:28:47;;;;;;;109.35;60.65;;;;;;;;;;10336206;28;20064;-52
2022/01/12 22:33:46;;;;;;;158.80;90.43;;;;;;;;;;10337194;28;20068;-54
2022/01/12 22:38:44;;;;;;;138.07;81.10;;;;;;;;;;10332766;28;20106;-55
2022/01/12 22:43:44;;;;;;;56.97;34.97;;;;;;;;;;10329173;28;20087;-54
2022/01/12 22:48:42;;;;;;;33.35;19.20;;;;;;;;;;10322285;28;20048;-54
2022/01/12 22:53:41;;;;;;;35.50;21.88;;;;;;;;;;10325169;28;20517;-57
2022/01/12 22:58:42;;;;;;;25.88;17.20;;;;;;;;;;10329146;28;20079;-54
2022/01/12 23:03:42;;;;;;;21.95;14.50;;;;;;;;;;10333731;28;20074;-55
2022/01/12 23:08:41;;;;;;;61.47;28.80;;;;;;;;;;10326173;28;20052;-55
2022/01/12 23:13:40;;;;;;;43.70;26.15;;;;;;;;;;10321963;28;20088;-56
2022/01/12 23:18:38;;;;;;;39.58;22.35;;;;;;;;;;10320978;28;20072;-53
2022/01/12 23:23:40;;;;;;;39.50;22.55;;;;;;;;;;10321306;28;20036;-55
2022/01/12 23:28:39;;;;;;;30.30;20.55;;;;;;;;;;10321598;28;20083;-57
2022/01/12 23:33:51;;;;;;;27.73;17.60;;;;;;;;;;10321294;28;20036;-57
2022/01/12 23:49:34;;;;;;;23.08;15.38;;;;;;;;;;10320766;28;20064;-55
